sensor_id;sensor_type;location;lat;lon;timestamp;pressure;altitude;pressure_sealevel;temperature;humidity
32851;BME280;19202;48.992;8.390;2022-10-14T00:04:54;100549.28;;;16.88;86.64
32851;BME280;19202;48.992;8.390;2022-10-14T00:10:36;100552.72;;;16.90;86.59
32851;BME280;19202;48.992;8.390;2022-10-14T00:16:16;100564.53;;;16.86;87.08
32851;BME280;19202;48.992;8.390;2022-10-14T00:21:55;100570.16;;;16.81;87.52
32851;BME280;19202;48.992;8.390;2022-10-14T00:27:33;100564.13;;;16.78;87.90
32851;BME280;19202;48.992;8.390;2022-10-14T00:33:11;100567.56;;;16.80;87.91
32851;BME280;19202;48.992;8.390;2022-10-14T00:38:50;100572.91;;;16.80;87.50
32851;BME280;19202;48.992;8.390;2022-10-14T00:50:06;100574.91;;;16.61;89.96
32851;BME280;19202;48.992;8.390;2022-10-14T00:55:45;100568.34;;;16.51;90.70
32851;BME280;19202;48.992;8.390;2022-10-14T01:01:23;100573.22;;;16.43;91.36
32851;BME280;19202;48.992;8.390;2022-10-14T01:12:53;100564.09;;;16.31;93.28
32851;BME280;19202;48.992;8.390;2022-10-14T01:18:53;100561.88;;;16.24;94.10
32851;BME280;19202;48.992;8.390;2022-10-14T01:30:47;100545.66;;;16.27;92.97
32851;BME280;19202;48.992;8.390;2022-10-14T01:36:47;100543.09;;;16.25;94.90
32851;BME280;19202;48.992;8.390;2022-10-14T01:42:30;100539.78;;;16.20;94.29
32851;BME280;19202;48.992;8.390;2022-10-14T01:48:12;100526.97;;;16.27;93.37
32851;BME280;19202;48.992;8.390;2022-10-14T01:53:58;100532.75;;;16.35;92.67
32851;BME280;19202;48.992;8.390;2022-10-14T01:59:38;100527.06;;;16.41;91.83
32851;BME280;19202;48.992;8.390;2022-10-14T02:05:25;100521.38;;;16.47;91.05
32851;BME280;19202;48.992;8.390;2022-10-14T02:11:14;100512.56;;;16.45;91.08
32851;BME280;19202;48.992;8.390;2022-10-14T02:17:02;100496.41;;;16.48;91.23
32851;BME280;19202;48.992;8.390;2022-10-14T02:22:52;100491.06;;;16.48;90.64
32851;BME280;19202;48.992;8.390;2022-10-14T02:28:33;100490.03;;;16.50;90.20
32851;BME280;19202;48.992;8.390;2022-10-14T02:34:15;100483.84;;;16.50;89.94
32851;BME280;19202;48.992;8.390;2022-10-14T02:39:59;100476.75;;;16.49;89.90
32851;BME280;19202;48.992;8.390;2022-10-14T02:45:41;100474.09;;;16.49;89.55
32851;BME280;19202;48.992;8.390;2022-10-14T02:51:19;100466.84;;;16.51;89.01
32851;BME280;19202;48.992;8.390;2022-10-14T02:56:57;100463.25;;;16.52;89.01
32851;BME280;19202;48.992;8.390;2022-10-14T03:02:35;100450.81;;;16.51;88.81
32851;BME280;19202;48.992;8.390;2022-10-14T03:08:12;100442.81;;;16.51;88.74
32851;BME280;19202;48.992;8.390;2022-10-14T03:13:50;100437.47;;;16.51;88.62
32851;BME280;19202;48.992;8.390;2022-10-14T03:19:28;100426.78;;;16.51;88.90
32851;BME280;19202;48.992;8.390;2022-10-14T03:25:06;100423.34;;;16.49;88.93
32851;BME280;19202;48.992;8.390;2022-10-14T03:30:44;100412.13;;;16.42;89.92
32851;BME280;19202;48.992;8.390;2022-10-14T03:36:22;100414.63;;;16.45;89.34
32851;BME280;19202;48.992;8.390;2022-10-14T03:42:00;100415.34;;;16.49;88.87
32851;BME280;19202;48.992;8.390;2022-10-14T03:47:38;100409.06;;;16.50;88.69
32851;BME280;19202;48.992;8.390;2022-10-14T03:53:16;100396.63;;;16.49;88.65
32851;BME280;19202;48.992;8.390;2022-10-14T03:58:54;100389.56;;;16.48;88.51
32851;BME280;19202;48.992;8.390;2022-10-14T04:04:32;100386.81;;;16.49;87.91
32851;BME280;19202;48.992;8.390;2022-10-14T04:10:09;100383.44;;;16.46;88.40
32851;BME280;19202;48.992;8.390;2022-10-14T04:15:47;100378.16;;;16.44;87.93
32851;BME280;19202;48.992;8.390;2022-10-14T04:21:26;100371.22;;;16.42;87.97
32851;BME280;19202;48.992;8.390;2022-10-14T04:27:04;100366.06;;;16.39;87.88
32851;BME280;19202;48.992;8.390;2022-10-14T04:32:41;100368.22;;;16.32;88.03
32851;BME280;19202;48.992;8.390;2022-10-14T04:38:19;100368.31;;;16.31;88.05
32851;BME280;19202;48.992;8.390;2022-10-14T04:43:57;100363.94;;;16.30;87.81
32851;BME280;19202;48.992;8.390;2022-10-14T04:49:35;100364.09;;;16.27;87.74
32851;BME280;19202;48.992;8.390;2022-10-14T04:55:13;100353.63;;;16.24;87.63
32851;BME280;19202;48.992;8.390;2022-10-14T05:00:53;100332.31;;;16.22;87.69
32851;BME280;19202;48.992;8.390;2022-10-14T05:06:32;100321.75;;;16.21;87.59
32851;BME280;19202;48.992;8.390;2022-10-14T05:12:09;100325.44;;;16.18;87.55
32851;BME280;19202;48.992;8.390;2022-10-14T05:17:47;100321.94;;;16.18;87.57
32851;BME280;19202;48.992;8.390;2022-10-14T05:23:25;100310.50;;;16.16;87.33
32851;BME280;19202;48.992;8.390;2022-10-14T05:29:03;100301.63;;;16.15;87.39
32851;BME280;19202;48.992;8.390;2022-10-14T05:34:41;100294.66;;;16.13;87.44
32851;BME280;19202;48.992;8.390;2022-10-14T05:40:19;100299.88;;;16.14;87.45
32851;BME280;19202;48.992;8.390;2022-10-14T05:45:57;100297.16;;;16.16;87.35
32851;BME280;19202;48.992;8.390;2022-10-14T05:51:35;100304.19;;;16.17;87.33
32851;BME280;19202;48.992;8.390;2022-10-14T05:57:12;100303.16;;;16.19;87.34
32851;BME280;19202;48.992;8.390;2022-10-14T06:02:50;100302.19;;;16.20;87.28
32851;BME280;19202;48.992;8.390;2022-10-14T06:08:28;100309.38;;;16.20;87.67
32851;BME280;19202;48.992;8.390;2022-10-14T06:14:07;100309.00;;;16.26;87.42
32851;BME280;19202;48.992;8.390;2022-10-14T06:19:44;100306.03;;;16.30;87.14
32851;BME280;19202;48.992;8.390;2022-10-14T06:25:22;100305.09;;;16.31;87.34
32851;BME280;19202;48.992;8.390;2022-10-14T06:31:00;100306.53;;;16.37;87.13
32851;BME280;19202;48.992;8.390;2022-10-14T06:36:38;100313.25;;;16.44;87.40
32851;BME280;19202;48.992;8.390;2022-10-14T06:42:16;100312.69;;;16.53;87.12
32851;BME280;19202;48.992;8.390;2022-10-14T06:47:54;100301.47;;;16.62;87.09
32851;BME280;19202;48.992;8.390;2022-10-14T06:53:33;100290.22;;;16.71;86.60
32851;BME280;19202;48.992;8.390;2022-10-14T06:59:10;100292.41;;;16.78;86.61
32851;BME280;19202;48.992;8.390;2022-10-14T07:04:48;100296.53;;;16.84;86.63
32851;BME280;19202;48.992;8.390;2022-10-14T07:10:26;100292.59;;;16.89;86.13
32851;BME280;19202;48.992;8.390;2022-10-14T07:16:04;100296.53;;;16.98;85.63
32851;BME280;19202;48.992;8.390;2022-10-14T07:21:42;100291.56;;;17.06;85.60
32851;BME280;19202;48.992;8.390;2022-10-14T07:27:22;100287.75;;;17.10;85.48
32851;BME280;19202;48.992;8.390;2022-10-14T07:33:00;100288.28;;;17.15;85.17
32851;BME280;19202;48.992;8.390;2022-10-14T07:38:38;100296.78;;;17.22;85.05
32851;BME280;19202;48.992;8.390;2022-10-14T07:44:16;100304.31;;;17.29;84.80
32851;BME280;19202;48.992;8.390;2022-10-14T07:49:54;100309.28;;;17.35;84.54
32851;BME280;19202;48.992;8.390;2022-10-14T07:55:32;100314.44;;;17.38;84.33
32851;BME280;19202;48.992;8.390;2022-10-14T08:01:09;100309.47;;;17.46;84.16
32851;BME280;19202;48.992;8.390;2022-10-14T08:06:47;100311.78;;;17.52;83.96
32851;BME280;19202;48.992;8.390;2022-10-14T08:12:26;100303.13;;;17.61;83.59
32851;BME280;19202;48.992;8.390;2022-10-14T08:18:08;100302.53;;;17.70;83.02
32851;BME280;19202;48.992;8.390;2022-10-14T08:23:47;100295.81;;;17.78;82.89
32851;BME280;19202;48.992;8.390;2022-10-14T08:29:26;100301.41;;;17.87;82.61
32851;BME280;19202;48.992;8.390;2022-10-14T08:35:04;100295.47;;;17.96;82.43
32851;BME280;19202;48.992;8.390;2022-10-14T08:40:58;100306.63;;;18.03;81.94
32851;BME280;19202;48.992;8.390;2022-10-14T08:46:43;100303.63;;;18.07;80.67
32851;BME280;19202;48.992;8.390;2022-10-14T08:52:39;100299.13;;;18.08;79.91
32851;BME280;19202;48.992;8.390;2022-10-14T08:58:32;100296.78;;;18.16;80.01
32851;BME280;19202;48.992;8.390;2022-10-14T09:04:12;100296.50;;;18.20;79.64
32851;BME280;19202;48.992;8.390;2022-10-14T09:09:57;100293.50;;;18.25;78.17
32851;BME280;19202;48.992;8.390;2022-10-14T09:15:43;100297.34;;;18.33;78.67
32851;BME280;19202;48.992;8.390;2022-10-14T09:27:14;100281.66;;;18.54;77.84
32851;BME280;19202;48.992;8.390;2022-10-14T09:32:53;100269.47;;;18.63;77.84
32851;BME280;19202;48.992;8.390;2022-10-14T09:38:31;100263.22;;;18.75;77.72
32851;BME280;19202;48.992;8.390;2022-10-14T09:49:58;100255.69;;;18.92;77.72
32851;BME280;19202;48.992;8.390;2022-10-14T09:55:46;100250.31;;;19.05;76.92
32851;BME280;19202;48.992;8.390;2022-10-14T10:01:34;100254.94;;;19.15;76.33
32851;BME280;19202;48.992;8.390;2022-10-14T10:07:31;100247.31;;;19.09;75.39
32851;BME280;19202;48.992;8.390;2022-10-14T10:13:29;100251.94;;;19.07;75.18
32851;BME280;19202;48.992;8.390;2022-10-14T10:19:31;100240.28;;;18.83;77.52
32851;BME280;19202;48.992;8.390;2022-10-14T10:30:59;100234.25;;;18.42;83.71
32851;BME280;19202;48.992;8.390;2022-10-14T10:36:50;100231.47;;;18.31;84.25
32851;BME280;19202;48.992;8.390;2022-10-14T10:42:36;100215.50;;;18.29;84.95
32851;BME280;19202;48.992;8.390;2022-10-14T10:48:47;100200.09;;;18.33;86.67
32851;BME280;19202;48.992;8.390;2022-10-14T10:54:41;100191.81;;;18.36;86.32
32851;BME280;19202;48.992;8.390;2022-10-14T11:00:23;100181.25;;;18.47;86.09
32851;BME280;19202;48.992;8.390;2022-10-14T11:06:20;100166.56;;;18.65;86.21
32851;BME280;19202;48.992;8.390;2022-10-14T11:12:32;100169.59;;;18.84;85.37
32851;BME280;19202;48.992;8.390;2022-10-14T11:18:24;100159.78;;;19.08;85.04
32851;BME280;19202;48.992;8.390;2022-10-14T11:24:26;100152.09;;;19.27;84.47
32851;BME280;19202;48.992;8.390;2022-10-14T11:30:18;100148.56;;;19.51;83.58
32851;BME280;19202;48.992;8.390;2022-10-14T11:36:15;100149.38;;;19.75;82.60
32851;BME280;19202;48.992;8.390;2022-10-14T11:48:00;100129.81;;;20.07;81.17
32851;BME280;19202;48.992;8.390;2022-10-14T11:53:58;100117.88;;;20.23;80.36
32851;BME280;19202;48.992;8.390;2022-10-14T12:06:10;100119.00;;;20.20;79.24
32851;BME280;19202;48.992;8.390;2022-10-14T12:12:02;100106.31;;;20.22;78.48
32851;BME280;19202;48.992;8.390;2022-10-14T12:17:45;100114.09;;;20.14;78.32
32851;BME280;19202;48.992;8.390;2022-10-14T12:23:35;100104.03;;;20.05;78.02
32851;BME280;19202;48.992;8.390;2022-10-14T12:29:24;100092.56;;;19.92;78.77
32851;BME280;19202;48.992;8.390;2022-10-14T12:53:00;100094.00;;;19.85;78.93
32851;BME280;19202;48.992;8.390;2022-10-14T12:58:41;100083.53;;;19.82;78.57
32851;BME280;19202;48.992;8.390;2022-10-14T13:04:28;100082.06;;;19.89;78.63
32851;BME280;19202;48.992;8.390;2022-10-14T13:16:09;100091.31;;;19.74;77.90
32851;BME280;19202;48.992;8.390;2022-10-14T13:21:55;100094.41;;;19.57;78.39
32851;BME280;19202;48.992;8.390;2022-10-14T13:27:49;100089.13;;;19.44;78.83
32851;BME280;19202;48.992;8.390;2022-10-14T13:33:33;100107.09;;;19.31;80.27
32851;BME280;19202;48.992;8.390;2022-10-14T13:39:14;100095.19;;;19.11;87.27
32851;BME280;19202;48.992;8.390;2022-10-14T13:45:10;100094.16;;;19.01;89.30
32851;BME280;19202;48.992;8.390;2022-10-14T13:51:03;100079.44;;;18.83;90.93
32851;BME280;19202;48.992;8.390;2022-10-14T13:57:01;100065.09;;;18.72;92.57
32851;BME280;19202;48.992;8.390;2022-10-14T14:02:40;100071.94;;;18.76;93.78
32851;BME280;19202;48.992;8.390;2022-10-14T14:08:25;100067.31;;;18.78;92.00
32851;BME280;19202;48.992;8.390;2022-10-14T14:14:07;100061.88;;;18.79;92.72
32851;BME280;19202;48.992;8.390;2022-10-14T14:19:47;100063.41;;;18.71;94.22
32851;BME280;19202;48.992;8.390;2022-10-14T14:25:27;100056.44;;;18.68;95.05
32851;BME280;19202;48.992;8.390;2022-10-14T14:31:06;100045.38;;;18.73;95.00
32851;BME280;19202;48.992;8.390;2022-10-14T14:36:46;100049.56;;;18.77;95.62
32851;BME280;19202;48.992;8.390;2022-10-14T14:42:26;100045.13;;;18.76;96.27
32851;BME280;19202;48.992;8.390;2022-10-14T14:48:05;100053.75;;;18.68;97.66
32851;BME280;19202;48.992;8.390;2022-10-14T14:53:48;100046.63;;;18.56;98.69
32851;BME280;19202;48.992;8.390;2022-10-14T14:59:38;100040.81;;;18.62;99.34
32851;BME280;19202;48.992;8.390;2022-10-14T15:05:18;100034.50;;;18.63;98.85
32851;BME280;19202;48.992;8.390;2022-10-14T15:10:58;100015.00;;;18.61;100.00
32851;BME280;19202;48.992;8.390;2022-10-14T15:16:40;100002.34;;;18.63;100.00
32851;BME280;19202;48.992;8.390;2022-10-14T15:22:22;100001.88;;;18.69;99.25
32851;BME280;19202;48.992;8.390;2022-10-14T15:28:01;100001.88;;;18.69;98.98
32851;BME280;19202;48.992;8.390;2022-10-14T15:33:40;99990.91;;;18.72;98.43
32851;BME280;19202;48.992;8.390;2022-10-14T15:39:19;99991.38;;;18.66;99.05
32851;BME280;19202;48.992;8.390;2022-10-14T15:44:58;99993.44;;;18.63;98.44
32851;BME280;19202;48.992;8.390;2022-10-14T15:50:36;99994.63;;;18.59;99.37
32851;BME280;19202;48.992;8.390;2022-10-14T15:56:16;99988.03;;;18.39;100.00
32851;BME280;19202;48.992;8.390;2022-10-14T16:01:53;99974.56;;;18.28;100.00
32851;BME280;19202;48.992;8.390;2022-10-14T16:07:32;99977.97;;;18.30;100.00
32851;BME280;19202;48.992;8.390;2022-10-14T16:13:11;99955.47;;;18.32;99.51
32851;BME280;19202;48.992;8.390;2022-10-14T16:18:49;99942.66;;;18.25;100.00
32851;BME280;19202;48.992;8.390;2022-10-14T16:24:27;99944.38;;;18.13;100.00
32851;BME280;19202;48.992;8.390;2022-10-14T16:30:05;99961.44;;;18.12;100.00
32851;BME280;19202;48.992;8.390;2022-10-14T16:35:53;99953.41;;;18.12;99.46
32851;BME280;19202;48.992;8.390;2022-10-14T16:41:31;99949.66;;;18.15;98.63
32851;BME280;19202;48.992;8.390;2022-10-14T16:47:10;99940.75;;;18.14;98.39
32851;BME280;19202;48.992;8.390;2022-10-14T16:52:53;99926.38;;;18.15;97.69
32851;BME280;19202;48.992;8.390;2022-10-14T16:58:50;99928.97;;;18.17;97.14
32851;BME280;19202;48.992;8.390;2022-10-14T17:04:28;99941.19;;;18.21;96.41
32851;BME280;19202;48.992;8.390;2022-10-14T17:10:08;99940.06;;;18.23;95.48
32851;BME280;19202;48.992;8.390;2022-10-14T17:15:46;99931.41;;;18.20;95.45
32851;BME280;19202;48.992;8.390;2022-10-14T17:21:25;99932.16;;;18.22;95.26
32851;BME280;19202;48.992;8.390;2022-10-14T17:27:05;99934.50;;;18.26;94.92
32851;BME280;19202;48.992;8.390;2022-10-14T17:32:43;99928.69;;;18.32;93.92
32851;BME280;19202;48.992;8.390;2022-10-14T17:38:22;99941.97;;;18.34;93.86
32851;BME280;19202;48.992;8.390;2022-10-14T17:44:01;99937.31;;;18.25;93.78
32851;BME280;19202;48.992;8.390;2022-10-14T17:49:39;99927.25;;;18.16;92.57
32851;BME280;19202;48.992;8.390;2022-10-14T17:55:17;99929.63;;;18.08;92.54
32851;BME280;19202;48.992;8.390;2022-10-14T18:01:08;99924.28;;;18.08;91.81
32851;BME280;19202;48.992;8.390;2022-10-14T18:06:47;99930.38;;;18.10;92.37
32851;BME280;19202;48.992;8.390;2022-10-14T18:12:25;99930.38;;;18.10;92.07
32851;BME280;19202;48.992;8.390;2022-10-14T18:18:03;99917.00;;;18.10;91.90
32851;BME280;19202;48.992;8.390;2022-10-14T18:23:41;99911.03;;;18.06;90.87
32851;BME280;19202;48.992;8.390;2022-10-14T18:29:19;99906.72;;;18.04;91.53
32851;BME280;19202;48.992;8.390;2022-10-14T18:34:58;99906.63;;;18.05;91.64
32851;BME280;19202;48.992;8.390;2022-10-14T18:40:36;99906.06;;;18.13;91.34
32851;BME280;19202;48.992;8.390;2022-10-14T18:46:20;99889.16;;;18.12;91.36
32851;BME280;19202;48.992;8.390;2022-10-14T18:51:58;99893.44;;;18.15;90.70
32851;BME280;19202;48.992;8.390;2022-10-14T18:57:39;99887.22;;;18.14;91.00
32851;BME280;19202;48.992;8.390;2022-10-14T19:03:18;99882.72;;;18.15;90.56
32851;BME280;19202;48.992;8.390;2022-10-14T19:08:56;99876.84;;;18.10;90.93
32851;BME280;19202;48.992;8.390;2022-10-14T19:14:36;99865.38;;;18.08;90.34
32851;BME280;19202;48.992;8.390;2022-10-14T19:20:14;99865.50;;;18.06;90.70
32851;BME280;19202;48.992;8.390;2022-10-14T19:25:52;99856.00;;;18.02;91.02
32851;BME280;19202;48.992;8.390;2022-10-14T19:31:32;99846.59;;;17.97;91.03
32851;BME280;19202;48.992;8.390;2022-10-14T19:37:10;99848.53;;;17.95;90.97
32851;BME280;19202;48.992;8.390;2022-10-14T19:42:48;99829.78;;;17.95;90.85
32851;BME280;19202;48.992;8.390;2022-10-14T19:48:26;99823.06;;;17.89;91.30
32851;BME280;19202;48.992;8.390;2022-10-14T19:54:05;99812.72;;;17.85;91.49
32851;BME280;19202;48.992;8.390;2022-10-14T19:59:43;99809.28;;;17.83;91.85
32851;BME280;19202;48.992;8.390;2022-10-14T20:05:21;99808.31;;;17.84;91.41
32851;BME280;19202;48.992;8.390;2022-10-14T20:11:00;99804.03;;;17.81;92.36
32851;BME280;19202;48.992;8.390;2022-10-14T20:16:39;99803.41;;;17.78;93.35
32851;BME280;19202;48.992;8.390;2022-10-14T20:22:17;99791.22;;;17.73;93.66
32851;BME280;19202;48.992;8.390;2022-10-14T20:27:55;99789.00;;;17.67;93.76
32851;BME280;19202;48.992;8.390;2022-10-14T20:33:33;99783.34;;;17.59;95.67
32851;BME280;19202;48.992;8.390;2022-10-14T20:39:11;99773.09;;;17.53;97.49
32851;BME280;19202;48.992;8.390;2022-10-14T20:44:49;99763.47;;;17.51;97.32
32851;BME280;19202;48.992;8.390;2022-10-14T20:50:27;99757.69;;;17.57;96.97
32851;BME280;19202;48.992;8.390;2022-10-14T20:56:08;99755.84;;;17.57;97.85
32851;BME280;19202;48.992;8.390;2022-10-14T21:01:47;99753.19;;;17.57;98.01
32851;BME280;19202;48.992;8.390;2022-10-14T21:07:25;99739.06;;;17.55;97.73
32851;BME280;19202;48.992;8.390;2022-10-14T21:13:03;99737.88;;;17.59;98.00
32851;BME280;19202;48.992;8.390;2022-10-14T21:18:50;99735.09;;;17.61;99.06
32851;BME280;19202;48.992;8.390;2022-10-14T21:24:29;99721.53;;;17.51;100.00
32851;BME280;19202;48.992;8.390;2022-10-14T21:30:08;99710.72;;;17.53;100.00
32851;BME280;19202;48.992;8.390;2022-10-14T21:35:46;99714.88;;;17.57;100.00
32851;BME280;19202;48.992;8.390;2022-10-14T21:41:24;99700.13;;;17.51;100.00
32851;BME280;19202;48.992;8.390;2022-10-14T21:47:02;99697.59;;;17.50;100.00
32851;BME280;19202;48.992;8.390;2022-10-14T21:52:40;99696.72;;;17.49;100.00
32851;BME280;19202;48.992;8.390;2022-10-14T21:58:18;99683.28;;;17.38;100.00
32851;BME280;19202;48.992;8.390;2022-10-14T22:04:01;99677.53;;;17.32;100.00
32851;BME280;19202;48.992;8.390;2022-10-14T22:09:42;99681.59;;;17.25;100.00
32851;BME280;19202;48.992;8.390;2022-10-14T22:15:20;99669.84;;;17.27;100.00
32851;BME280;19202;48.992;8.390;2022-10-14T22:21:05;99663.63;;;17.27;100.00
32851;BME280;19202;48.992;8.390;2022-10-14T22:26:43;99659.75;;;17.31;100.00
32851;BME280;19202;48.992;8.390;2022-10-14T22:32:21;99655.72;;;17.25;100.00
32851;BME280;19202;48.992;8.390;2022-10-14T22:38:00;99651.00;;;17.29;100.00
32851;BME280;19202;48.992;8.390;2022-10-14T22:43:38;99636.06;;;17.26;100.00
32851;BME280;19202;48.992;8.390;2022-10-14T22:49:16;99626.31;;;17.25;100.00
32851;BME280;19202;48.992;8.390;2022-10-14T22:54:53;99634.34;;;17.25;100.00
32851;BME280;19202;48.992;8.390;2022-10-14T23:00:32;99629.72;;;17.27;100.00
32851;BME280;19202;48.992;8.390;2022-10-14T23:06:11;99616.81;;;17.21;100.00
32851;BME280;19202;48.992;8.390;2022-10-14T23:11:50;99622.31;;;17.31;100.00
32851;BME280;19202;48.992;8.390;2022-10-14T23:17:28;99612.28;;;17.34;100.00
32851;BME280;19202;48.992;8.390;2022-10-14T23:23:06;99610.56;;;17.33;100.00
32851;BME280;19202;48.992;8.390;2022-10-14T23:28:49;99611.06;;;17.38;100.00
32851;BME280;19202;48.992;8.390;2022-10-14T23:34:27;99608.41;;;17.38;100.00
32851;BME280;19202;48.992;8.390;2022-10-14T23:40:06;99603.16;;;17.37;100.00
32851;BME280;19202;48.992;8.390;2022-10-14T23:45:44;99603.53;;;17.43;100.00
32851;BME280;19202;48.992;8.390;2022-10-14T23:51:22;99600.53;;;17.48;100.00
32851;BME280;19202;48.992;8.390;2022-10-14T23:57:00;99606.53;;;17.51;100.00
